createdAt,value
2022-11-27T00:00:49.403Z,5.32
2022-11-27T00:03:18.716Z,5.29
2022-11-27T00:05:53.529Z,5.26
2022-11-27T00:08:21.388Z,5.19
2022-11-27T00:10:49.214Z,5.14
2022-11-27T00:13:17.264Z,5.09
2022-11-27T00:15:45.093Z,5.04
2022-11-27T00:18:13.188Z,5.04
2022-11-27T00:20:42.305Z,5.05
2022-11-27T00:23:10.165Z,5.08
2022-11-27T00:25:37.984Z,5.11
2022-11-27T00:28:06.108Z,5.17
2022-11-27T00:30:33.888Z,5.23
2022-11-27T00:33:01.647Z,5.36
2022-11-27T00:35:29.525Z,5.45
2022-11-27T00:38:01.819Z,5.48
2022-11-27T00:40:29.593Z,5.51
2022-11-27T00:42:57.569Z,5.54
2022-11-27T00:45:25.597Z,5.52
2022-11-27T00:47:53.494Z,5.52
2022-11-27T00:50:21.672Z,5.52
2022-11-27T00:52:49.681Z,5.43
2022-11-27T00:55:19.076Z,5.39
2022-11-27T00:57:46.903Z,5.37
2022-11-27T01:00:16.094Z,5.33
2022-11-27T01:02:44.737Z,5.29
2022-11-27T01:05:12.675Z,5.26
2022-11-27T01:07:40.598Z,5.31
2022-11-27T01:10:09.898Z,5.30
2022-11-27T01:12:39.108Z,5.29
2022-11-27T01:15:07.887Z,5.34
2022-11-27T01:17:35.702Z,5.38
2022-11-27T01:20:03.572Z,5.38
2022-11-27T01:22:31.422Z,5.36
2022-11-27T01:24:59.202Z,5.35
2022-11-27T01:27:27.070Z,5.36
2022-11-27T01:29:56.293Z,5.36
2022-11-27T01:32:24.095Z,5.38
2022-11-27T01:34:54.315Z,5.37
2022-11-27T01:37:22.243Z,5.34
2022-11-27T01:39:50.080Z,5.30
2022-11-27T01:42:17.925Z,5.34
2022-11-27T01:44:54.766Z,5.35
2022-11-27T01:47:34.966Z,5.30
2022-11-27T01:50:12.331Z,5.18
2022-11-27T01:52:44.546Z,5.27
2022-11-27T01:55:18.878Z,5.27
2022-11-27T01:57:49.487Z,5.23
2022-11-27T02:00:19.191Z,5.20
2022-11-27T02:02:48.995Z,5.18
2022-11-27T02:05:19.514Z,5.19
2022-11-27T02:07:48.772Z,5.17
2022-11-27T02:10:17.798Z,5.15
2022-11-27T02:12:53.444Z,5.10
2022-11-27T02:15:27.586Z,5.13
2022-11-27T02:18:07.427Z,5.12
2022-11-27T02:20:45.284Z,5.13
2022-11-27T02:23:40.438Z,5.12
2022-11-27T02:26:26.470Z,5.15
2022-11-27T02:29:05.154Z,5.17
2022-11-27T02:31:39.727Z,5.17
2022-11-27T02:34:16.047Z,5.17
2022-11-27T02:36:51.262Z,5.14
2022-11-27T02:39:24.046Z,5.13
2022-11-27T02:41:57.895Z,5.14
2022-11-27T02:44:30.788Z,5.14
2022-11-27T02:46:58.802Z,5.10
2022-11-27T02:49:27.564Z,5.04
2022-11-27T02:52:00.132Z,4.99
2022-11-27T02:54:31.210Z,5.02
2022-11-27T02:57:03.645Z,5.03
2022-11-27T02:59:36.019Z,5.01
2022-11-27T03:02:08.612Z,4.93
2022-11-27T03:04:40.400Z,4.87
2022-11-27T03:07:15.636Z,4.82
2022-11-27T03:09:47.235Z,4.68
2022-11-27T03:12:17.914Z,4.63
2022-11-27T03:14:48.561Z,4.66
2022-11-27T03:17:30.331Z,4.63
2022-11-27T03:20:02.212Z,4.66
2022-11-27T03:22:33.068Z,4.66
2022-11-27T03:25:00.994Z,4.63
2022-11-27T03:27:33.569Z,4.52
2022-11-27T03:30:06.922Z,4.62
2022-11-27T03:32:34.993Z,4.60
2022-11-27T03:35:03.122Z,4.53
2022-11-27T03:37:31.011Z,4.48
2022-11-27T03:39:58.844Z,4.48
2022-11-27T03:42:32.007Z,4.55
2022-11-27T03:45:09.174Z,4.49
2022-11-27T03:47:55.563Z,4.39
2022-11-27T03:50:34.336Z,4.17
2022-11-27T03:53:11.801Z,4.29
2022-11-27T03:55:49.404Z,4.43
2022-11-27T03:58:24.441Z,4.50
2022-11-27T04:00:54.340Z,4.37
2022-11-27T04:03:25.135Z,4.52
2022-11-27T04:05:53.435Z,4.26
2022-11-27T04:08:21.607Z,4.40
2022-11-27T04:10:49.670Z,4.38
2022-11-27T04:13:17.671Z,4.40
2022-11-27T04:15:45.481Z,4.41
2022-11-27T04:18:14.784Z,4.40
2022-11-27T04:20:42.713Z,4.37
2022-11-27T04:23:11.227Z,4.40
2022-11-27T04:25:39.059Z,4.33
2022-11-27T04:28:06.930Z,4.42
2022-11-27T04:30:35.142Z,4.41
2022-11-27T04:33:03.026Z,4.35
2022-11-27T04:35:32.375Z,4.33
2022-11-27T04:38:00.254Z,4.34
2022-11-27T04:40:28.438Z,4.32
2022-11-27T04:42:56.230Z,4.37
2022-11-27T04:45:24.050Z,4.36
2022-11-27T04:47:51.873Z,4.30
2022-11-27T04:50:19.902Z,4.15
2022-11-27T04:52:49.052Z,4.20
2022-11-27T04:55:17.207Z,4.20
2022-11-27T04:57:44.998Z,4.21
2022-11-27T05:00:13.827Z,4.17
2022-11-27T05:02:41.915Z,4.24
2022-11-27T05:05:10.344Z,4.22
2022-11-27T05:07:38.555Z,4.22
2022-11-27T05:10:09.536Z,4.22
2022-11-27T05:12:37.438Z,4.26
2022-11-27T05:15:06.025Z,4.27
2022-11-27T05:17:33.860Z,4.27
2022-11-27T05:20:01.750Z,4.25
2022-11-27T05:22:29.651Z,4.21
2022-11-27T05:24:57.526Z,4.20
2022-11-27T05:27:26.739Z,4.20
2022-11-27T05:29:54.567Z,4.16
2022-11-27T05:32:22.401Z,4.12
2022-11-27T05:34:50.458Z,4.07
2022-11-27T05:37:19.932Z,4.05
2022-11-27T05:39:48.134Z,3.97
2022-11-27T05:42:15.982Z,4.00
2022-11-27T05:44:45.254Z,3.93
2022-11-27T05:47:13.054Z,3.82
2022-11-27T05:49:40.826Z,3.78
2022-11-27T05:52:08.620Z,3.80
2022-11-27T05:54:36.548Z,3.80
2022-11-27T05:57:04.419Z,3.61
2022-11-27T05:59:32.270Z,3.45
2022-11-27T06:02:01.562Z,3.33
2022-11-27T06:04:29.390Z,3.25
2022-11-27T06:06:57.180Z,3.17
2022-11-27T06:09:25.326Z,3.17
2022-11-27T06:11:53.135Z,3.24
2022-11-27T06:14:21.075Z,3.23
2022-11-27T06:16:48.961Z,3.28
2022-11-27T06:19:18.160Z,3.30
2022-11-27T06:21:46.522Z,3.36
2022-11-27T06:24:14.486Z,3.42
2022-11-27T06:26:42.376Z,3.45
2022-11-27T06:29:11.100Z,3.45
2022-11-27T06:31:39.110Z,3.47
2022-11-27T06:34:07.714Z,3.47
2022-11-27T06:36:39.980Z,3.47
2022-11-27T06:39:09.318Z,3.36
2022-11-27T06:41:37.504Z,3.13
2022-11-27T06:44:05.687Z,3.23
2022-11-27T06:46:33.547Z,3.15
2022-11-27T06:49:01.969Z,2.87
2022-11-27T06:51:31.845Z,2.89
2022-11-27T06:54:02.427Z,2.77
2022-11-27T06:56:31.889Z,2.70
2022-11-27T06:59:01.999Z,2.67
2022-11-27T07:01:32.054Z,2.65
2022-11-27T07:04:00.391Z,2.65
2022-11-27T07:06:29.130Z,2.59
2022-11-27T07:08:57.183Z,2.56
2022-11-27T07:11:28.252Z,2.55
2022-11-27T07:13:57.998Z,2.53
2022-11-27T07:16:26.676Z,2.60
2022-11-27T07:18:56.394Z,2.66
2022-11-27T07:21:24.584Z,2.74
2022-11-27T07:23:52.588Z,2.93
2022-11-27T07:26:22.730Z,3.23
2022-11-27T07:28:52.610Z,3.47
2022-11-27T07:31:22.882Z,3.66
2022-11-27T07:33:52.431Z,3.78
2022-11-27T07:36:22.224Z,3.81
2022-11-27T07:38:50.433Z,3.89
2022-11-27T07:41:18.840Z,3.94
2022-11-27T07:43:47.329Z,4.00
2022-11-27T07:46:19.566Z,4.18
2022-11-27T07:48:47.796Z,4.35
2022-11-27T07:51:18.003Z,4.43
2022-11-27T07:53:46.229Z,4.59
2022-11-27T07:56:16.584Z,4.70
2022-11-27T07:58:44.646Z,4.80
2022-11-27T08:01:17.357Z,4.88
2022-11-27T08:03:47.184Z,4.93
2022-11-27T08:06:17.104Z,4.97
2022-11-27T08:08:45.456Z,5.00
2022-11-27T08:11:18.288Z,5.03
2022-11-27T08:13:46.187Z,5.03
2022-11-27T08:16:14.047Z,5.00
2022-11-27T08:18:41.967Z,4.98
2022-11-27T08:21:11.265Z,4.99
2022-11-27T08:23:41.435Z,5.01
2022-11-27T08:26:10.916Z,4.91
2022-11-27T08:28:39.727Z,5.09
2022-11-27T08:31:09.320Z,5.12
2022-11-27T08:33:37.333Z,5.15
2022-11-27T08:36:08.994Z,5.22
2022-11-27T08:38:40.227Z,5.23
2022-11-27T08:41:09.512Z,5.38
2022-11-27T08:43:37.603Z,5.43
2022-11-27T08:46:06.284Z,5.51
2022-11-27T08:48:34.733Z,5.60
2022-11-27T08:51:06.593Z,5.67
2022-11-27T08:53:34.545Z,5.62
2022-11-27T08:56:08.848Z,5.75
2022-11-27T08:58:40.966Z,5.79
2022-11-27T09:01:13.624Z,5.86
2022-11-27T09:03:41.686Z,5.88
2022-11-27T09:06:11.634Z,5.92
2022-11-27T09:08:40.006Z,5.90
2022-11-27T09:11:10.448Z,5.97
2022-11-27T09:13:40.360Z,5.98
2022-11-27T09:16:11.195Z,5.97
2022-11-27T09:18:39.525Z,5.95
2022-11-27T09:21:09.910Z,5.92
2022-11-27T09:23:38.540Z,5.98
2022-11-27T09:26:11.562Z,5.99
2022-11-27T09:28:41.138Z,6.01
2022-11-27T09:31:13.356Z,6.04
2022-11-27T09:33:42.595Z,6.05
2022-11-27T09:36:11.899Z,6.08
2022-11-27T09:38:40.158Z,5.99
2022-11-27T09:41:36.494Z,6.15
2022-11-27T09:44:13.009Z,6.17
2022-11-27T09:46:43.603Z,6.21
2022-11-27T09:49:18.418Z,6.21
2022-11-27T09:51:53.533Z,6.22
2022-11-27T09:54:26.111Z,6.25
2022-11-27T09:56:56.998Z,6.28
2022-11-27T09:59:30.299Z,6.31
2022-11-27T10:01:58.340Z,6.29
2022-11-27T10:04:26.315Z,6.37
2022-11-27T10:07:10.354Z,6.40
2022-11-27T10:09:53.844Z,6.42
2022-11-27T10:12:33.303Z,6.44
2022-11-27T10:15:08.465Z,6.47
2022-11-27T10:17:42.963Z,6.48
2022-11-27T10:20:20.485Z,6.51
2022-11-27T10:22:56.646Z,6.53
2022-11-27T10:25:31.053Z,6.55
2022-11-27T10:28:13.166Z,6.58
2022-11-27T10:30:48.607Z,6.61
2022-11-27T10:33:21.312Z,6.62
2022-11-27T10:35:50.676Z,6.66
2022-11-27T10:38:22.820Z,6.69
2022-11-27T10:40:55.808Z,6.57
2022-11-27T10:43:26.443Z,6.76
2022-11-27T10:45:58.550Z,6.77
2022-11-27T10:48:27.802Z,6.77
2022-11-27T10:50:55.615Z,6.76
2022-11-27T10:53:28.200Z,6.78
2022-11-27T10:56:06.053Z,6.81
2022-11-27T10:58:41.056Z,6.78
2022-11-27T11:01:10.511Z,6.91
2022-11-27T11:03:38.891Z,6.94
2022-11-27T11:06:23.187Z,6.98
2022-11-27T11:09:02.348Z,7.02
2022-11-27T11:11:30.242Z,7.05
2022-11-27T11:13:59.402Z,7.12
2022-11-27T11:16:34.864Z,7.14
2022-11-27T11:19:03.765Z,7.19
2022-11-27T11:21:34.921Z,7.23
2022-11-27T11:24:05.256Z,7.21
2022-11-27T11:26:37.067Z,7.22
2022-11-27T11:29:26.573Z,7.22
2022-11-27T11:31:56.203Z,7.22
2022-11-27T11:34:26.923Z,7.21
2022-11-27T11:36:57.579Z,7.22
2022-11-27T11:39:28.181Z,7.23
2022-11-27T11:41:56.105Z,7.22
2022-11-27T11:44:38.891Z,7.20
2022-11-27T11:47:07.377Z,7.21
2022-11-27T11:49:36.971Z,7.22
2022-11-27T11:52:21.876Z,7.20
2022-11-27T11:55:01.407Z,7.18
2022-11-27T11:58:10.108Z,7.25
2022-11-27T12:01:11.419Z,7.27
2022-11-27T12:03:51.750Z,7.27
2022-11-27T12:06:48.756Z,7.25
2022-11-27T12:09:28.901Z,7.24
2022-11-27T12:12:02.277Z,7.22
2022-11-27T12:14:42.908Z,7.20
2022-11-27T12:17:27.972Z,7.19
2022-11-27T12:20:18.294Z,7.23
2022-11-27T12:23:31.062Z,7.30
2022-11-27T12:26:08.146Z,7.38
2022-11-27T12:28:48.453Z,7.46
2022-11-27T12:31:27.446Z,7.52
2022-11-27T12:34:03.963Z,7.61
2022-11-27T12:36:46.112Z,7.56
2022-11-27T12:39:25.486Z,7.82
2022-11-27T12:42:03.977Z,7.95
2022-11-27T12:44:51.049Z,8.05
2022-11-27T12:47:25.992Z,8.11
2022-11-27T12:49:58.280Z,8.14
2022-11-27T12:52:32.358Z,8.16
2022-11-27T12:55:05.842Z,8.13
2022-11-27T12:57:40.426Z,8.23
2022-11-27T13:00:17.531Z,8.17
2022-11-27T13:02:50.824Z,8.23
2022-11-27T13:05:23.936Z,8.27
2022-11-27T13:07:55.641Z,8.23
2022-11-27T13:10:29.438Z,8.30
2022-11-27T13:13:05.797Z,8.32
2022-11-27T13:15:39.199Z,8.33
2022-11-27T13:18:17.094Z,8.35
2022-11-27T13:20:52.332Z,8.38
2022-11-27T13:23:21.147Z,8.11
2022-11-27T13:25:54.007Z,7.99
2022-11-27T13:28:29.610Z,7.83
2022-11-27T13:31:00.999Z,7.64
2022-11-27T13:33:37.620Z,7.61
2022-11-27T13:36:18.178Z,7.46
2022-11-27T13:38:46.610Z,7.35
2022-11-27T13:41:22.064Z,7.29
2022-11-27T13:43:50.535Z,7.22
2022-11-27T13:46:22.059Z,7.15
2022-11-27T13:48:53.355Z,7.22
2022-11-27T13:51:28.580Z,7.28
2022-11-27T13:54:08.077Z,7.25
2022-11-27T13:56:35.902Z,7.20
2022-11-27T13:59:14.745Z,7.32
2022-11-27T14:01:54.628Z,7.38
2022-11-27T14:04:22.505Z,7.45
2022-11-27T14:06:57.304Z,7.48
2022-11-27T14:09:35.971Z,7.50
2022-11-27T14:12:16.723Z,7.43
2022-11-27T14:14:46.374Z,7.42
2022-11-27T14:17:27.384Z,7.37
2022-11-27T14:20:06.834Z,7.34
2022-11-27T14:23:07.511Z,7.33
2022-11-27T14:25:36.209Z,7.32
2022-11-27T14:28:13.075Z,7.24
2022-11-27T14:30:42.271Z,7.24
2022-11-27T14:33:20.029Z,7.19
2022-11-27T14:35:51.920Z,7.14
2022-11-27T14:38:21.149Z,7.06
2022-11-27T14:40:50.495Z,6.98
2022-11-27T14:43:20.431Z,6.87
2022-11-27T14:45:50.775Z,6.79
2022-11-27T14:48:24.652Z,6.59
2022-11-27T14:50:54.838Z,6.41
2022-11-27T14:53:26.021Z,6.46
2022-11-27T14:55:55.786Z,6.36
2022-11-27T14:58:26.859Z,6.27
2022-11-27T15:01:01.249Z,6.18
2022-11-27T15:03:29.878Z,6.09
2022-11-27T15:06:00.079Z,6.08
2022-11-27T15:08:32.822Z,6.02
2022-11-27T15:11:02.626Z,5.96
2022-11-27T15:13:32.277Z,5.80
2022-11-27T15:16:04.950Z,5.89
2022-11-27T15:18:37.095Z,5.83
2022-11-27T15:21:11.508Z,5.82
2022-11-27T15:23:45.986Z,5.76
2022-11-27T15:26:19.950Z,5.75
2022-11-27T15:28:53.256Z,5.62
2022-11-27T15:31:27.429Z,5.68
2022-11-27T15:33:57.363Z,5.65
2022-11-27T15:36:25.973Z,5.62
2022-11-27T15:39:06.496Z,5.52
2022-11-27T15:41:37.369Z,5.52
2022-11-27T15:44:10.099Z,5.45
2022-11-27T15:46:37.995Z,5.44
2022-11-27T15:49:09.537Z,5.40
2022-11-27T15:51:37.400Z,5.36
2022-11-27T15:54:06.691Z,5.31
2022-11-27T15:56:34.609Z,5.20
2022-11-27T15:59:02.404Z,5.18
2022-11-27T16:01:30.366Z,5.15
2022-11-27T16:03:58.730Z,5.12
2022-11-27T16:06:26.802Z,5.08
2022-11-27T16:08:56.151Z,5.05
2022-11-27T16:11:26.653Z,5.07
2022-11-27T16:13:54.543Z,5.07
2022-11-27T16:16:23.361Z,5.06
2022-11-27T16:18:51.327Z,5.02
2022-11-27T16:21:19.645Z,4.97
2022-11-27T16:23:47.443Z,5.00
2022-11-27T16:26:15.715Z,4.97
2022-11-27T16:28:45.053Z,4.99
2022-11-27T16:31:14.968Z,4.93
2022-11-27T16:33:43.446Z,4.95
2022-11-27T16:36:14.455Z,4.92
2022-11-27T16:38:43.340Z,4.92
2022-11-27T16:41:13.917Z,4.95
2022-11-27T16:43:45.627Z,4.95
2022-11-27T16:46:16.126Z,4.97
2022-11-27T16:48:45.009Z,4.88
2022-11-27T16:51:15.965Z,4.83
2022-11-27T16:53:45.750Z,4.92
2022-11-27T16:56:17.368Z,4.89
2022-11-27T16:58:48.204Z,4.92
2022-11-27T17:01:19.878Z,4.93
2022-11-27T17:03:48.210Z,4.87
2022-11-27T17:06:17.850Z,4.92
2022-11-27T17:08:45.743Z,4.88
2022-11-27T17:11:15.950Z,4.91
2022-11-27T17:13:44.263Z,4.93
2022-11-27T17:16:13.777Z,4.92
2022-11-27T17:18:45.566Z,4.91
2022-11-27T17:21:18.181Z,4.91
2022-11-27T17:23:47.011Z,4.90
2022-11-27T17:26:16.864Z,4.80
2022-11-27T17:28:45.267Z,4.77
2022-11-27T17:31:17.443Z,4.79
2022-11-27T17:33:46.017Z,4.74
2022-11-27T17:36:14.651Z,4.72
2022-11-27T17:38:43.050Z,4.76
2022-11-27T17:41:13.732Z,4.59
2022-11-27T17:43:42.820Z,4.80
2022-11-27T17:46:12.196Z,4.74
2022-11-27T17:48:42.307Z,4.75
2022-11-27T17:51:11.056Z,4.58
2022-11-27T17:53:39.212Z,4.65
2022-11-27T17:56:10.934Z,4.62
2022-11-27T17:58:39.987Z,4.66
2022-11-27T18:01:15.891Z,4.74
2022-11-27T18:03:47.135Z,4.81
2022-11-27T18:06:17.440Z,4.94
2022-11-27T18:08:46.874Z,5.03
2022-11-27T18:11:18.174Z,5.09
2022-11-27T18:13:46.815Z,5.13
2022-11-27T18:16:16.614Z,4.90
2022-11-27T18:18:45.851Z,5.09
2022-11-27T18:21:18.346Z,5.10
2022-11-27T18:24:21.532Z,5.12
2022-11-27T18:29:23.914Z,4.98
2022-11-27T18:31:53.254Z,4.95
2022-11-27T18:34:22.511Z,4.95
2022-11-27T18:36:50.471Z,4.96
2022-11-27T18:39:18.559Z,4.99
2022-11-27T18:41:46.369Z,5.00
2022-11-27T18:44:14.236Z,4.98
2022-11-27T18:46:42.114Z,4.84
2022-11-27T18:49:09.969Z,4.85
2022-11-27T18:51:39.563Z,4.82
2022-11-27T18:54:08.636Z,4.83
2022-11-27T18:56:37.412Z,4.82
2022-11-27T18:59:06.969Z,4.86
2022-11-27T19:01:41.915Z,4.89
2022-11-27T19:04:11.493Z,4.84
2022-11-27T19:06:42.536Z,4.82
2022-11-27T19:09:12.107Z,4.76
2022-11-27T19:11:40.575Z,4.75
2022-11-27T19:14:09.846Z,4.73
2022-11-27T19:16:43.735Z,4.86
2022-11-27T19:19:52.169Z,4.90
2022-11-27T19:22:03.411Z,4.91
2022-11-27T19:24:31.498Z,4.94
2022-11-27T19:26:59.440Z,5.04
2022-11-27T19:29:27.402Z,5.07
2022-11-27T19:31:58.127Z,5.10
2022-11-27T19:34:26.157Z,5.12
2022-11-27T19:36:54.360Z,5.14
2022-11-27T19:39:23.860Z,5.17
2022-11-27T19:41:52.251Z,5.21
2022-11-27T19:44:20.446Z,5.19
2022-11-27T19:46:49.111Z,5.18
2022-11-27T19:49:18.733Z,5.13
2022-11-27T19:51:47.740Z,5.12
2022-11-27T19:54:19.142Z,5.10
2022-11-27T19:56:48.402Z,5.07
2022-11-27T19:59:17.636Z,5.00
2022-11-27T20:01:48.047Z,4.93
2022-11-27T20:04:16.264Z,4.89
2022-11-27T20:06:45.281Z,4.84
2022-11-27T20:09:15.139Z,4.78
2022-11-27T20:11:43.902Z,4.73
2022-11-27T20:14:14.263Z,4.68
2022-11-27T20:16:42.214Z,4.63
2022-11-27T20:19:10.087Z,4.61
2022-11-27T20:21:40.036Z,4.61
2022-11-27T20:24:08.044Z,4.61
2022-11-27T20:26:41.283Z,4.59
2022-11-27T20:29:12.012Z,4.64
2022-11-27T20:31:44.709Z,4.66
2022-11-27T20:34:19.127Z,4.68
2022-11-27T20:36:48.853Z,4.71
2022-11-27T20:39:21.261Z,4.74
2022-11-27T20:41:52.163Z,4.76
2022-11-27T20:44:22.191Z,4.84
2022-11-27T20:46:52.226Z,4.91
2022-11-27T20:49:20.764Z,4.72
2022-11-27T20:51:50.727Z,4.54
2022-11-27T20:54:23.126Z,4.47
2022-11-27T20:56:51.501Z,4.29
2022-11-27T20:59:20.017Z,4.10
2022-11-27T21:01:48.591Z,4.01
2022-11-27T21:04:24.499Z,3.96
2022-11-27T21:06:54.017Z,4.09
2022-11-27T21:09:22.267Z,4.21
2022-11-27T21:11:50.772Z,4.28
2022-11-27T21:14:21.031Z,4.33
2022-11-27T21:16:51.238Z,4.30
2022-11-27T21:19:22.706Z,4.21
2022-11-27T21:21:51.479Z,4.23
2022-11-27T21:24:20.956Z,4.32
2022-11-27T21:26:49.781Z,4.45
2022-11-27T21:29:18.168Z,4.54
2022-11-27T21:31:47.400Z,4.66
2022-11-27T21:34:16.781Z,4.69
2022-11-27T21:36:46.634Z,4.68
2022-11-27T21:39:20.464Z,4.67
2022-11-27T21:41:49.369Z,4.80
2022-11-27T21:44:19.770Z,4.84
2022-11-27T21:46:48.404Z,4.79
2022-11-27T21:49:19.684Z,4.71
2022-11-27T21:51:52.192Z,4.70
2022-11-27T21:54:23.459Z,4.78
2022-11-27T21:56:52.679Z,4.80
2022-11-27T21:59:20.937Z,4.80
2022-11-27T22:01:48.963Z,4.82
2022-11-27T22:04:17.549Z,4.83
2022-11-27T22:06:45.715Z,4.83
2022-11-27T22:09:15.964Z,4.82
2022-11-27T22:11:45.495Z,4.79
2022-11-27T22:14:15.046Z,4.76
2022-11-27T22:16:46.210Z,4.75
2022-11-27T22:19:16.252Z,4.74
2022-11-27T22:21:45.021Z,4.76
2022-11-27T22:24:19.273Z,4.75
2022-11-27T22:26:51.596Z,4.72
2022-11-27T22:29:20.476Z,4.63
2022-11-27T22:31:48.588Z,4.61
2022-11-27T22:34:17.061Z,4.81
2022-11-27T22:36:46.022Z,4.84
2022-11-27T22:39:16.101Z,4.87
2022-11-27T22:41:45.332Z,4.86
2022-11-27T22:44:16.925Z,4.90
2022-11-27T22:46:45.328Z,4.89
2022-11-27T22:49:15.978Z,4.88
2022-11-27T22:51:45.018Z,4.91
2022-11-27T22:54:16.953Z,4.96
2022-11-27T22:56:46.501Z,4.97
2022-11-27T22:59:34.489Z,4.96
2022-11-27T23:02:06.812Z,4.84
2022-11-27T23:04:36.900Z,4.74
2022-11-27T23:07:05.714Z,4.69
2022-11-27T23:09:35.400Z,4.81
2022-11-27T23:12:03.661Z,4.80
2022-11-27T23:14:31.466Z,4.81
2022-11-27T23:16:59.986Z,4.72
2022-11-27T23:19:27.919Z,4.70
2022-11-27T23:21:55.930Z,4.77
2022-11-27T23:24:26.668Z,4.73
2022-11-27T23:26:55.929Z,4.65
2022-11-27T23:29:24.278Z,4.61
2022-11-27T23:31:52.207Z,4.60
2022-11-27T23:34:20.058Z,4.72
2022-11-27T23:36:48.077Z,4.79
2022-11-27T23:39:16.111Z,4.87
2022-11-27T23:41:44.575Z,4.96
2022-11-27T23:44:13.710Z,5.03
2022-11-27T23:46:41.537Z,4.96
2022-11-27T23:49:09.502Z,5.04
2022-11-27T23:51:37.557Z,5.10
2022-11-27T23:54:09.087Z,5.14
2022-11-27T23:56:37.630Z,5.14
2022-11-27T23:59:06.322Z,5.13
